Time;durP1;ratioP1;P1;durP2;ratioP2;P2;SDS_P1;SDS_P2;PMS_P1;PMS_P2;Temp;Humidity;BMP_temperature;BMP_pressure;BME280_temperature;BME280_humidity;BME280_pressure;Samples;Min_cycle;Max_cycle;Signal;HPM_P1;HPM_P2
2022/04/08 00:01:42;;;;;;;5.53;2.77;;;7.20;99.90;;;;;;2613534;39;20538;-70
2022/04/08 00:04:08;;;;;;;2.93;2.73;;;7.00;99.90;;;;;;2610776;54;20199;-72
2022/04/08 00:06:34;;;;;;;4.97;3.20;;;7.00;99.90;;;;;;2612740;54;20278;-72
2022/04/08 00:09:00;;;;;;;6.93;3.03;;;7.00;99.90;;;;;;2610275;54;20161;-72
2022/04/08 00:11:25;;;;;;;7.03;3.40;;;6.90;99.90;;;;;;2612176;54;20497;-72
2022/04/08 00:13:53;;;;;;;5.37;3.00;;;6.90;99.90;;;;;;2611971;54;21011;-71
2022/04/08 00:16:22;;;;;;;4.33;2.50;;;6.90;99.90;;;;;;2610877;54;20252;-72
2022/04/08 00:18:48;;;;;;;6.23;3.83;;;6.80;99.90;;;;;;2612509;54;20411;-71
2022/04/08 00:21:15;;;;;;;9.60;4.33;;;6.80;99.90;;;;;;2612553;54;20992;-72
2022/04/08 00:23:42;;;;;;;5.97;3.60;;;6.70;99.90;;;;;;2611880;39;20868;-72
2022/04/08 00:26:08;;;;;;;4.70;4.10;;;6.60;99.90;;;;;;2610974;54;20423;-71
2022/04/08 00:28:34;;;;;;;6.57;4.10;;;6.60;99.90;;;;;;2610518;54;20478;-71
2022/04/08 00:31:01;;;;;;;5.63;3.63;;;6.60;99.90;;;;;;2612705;54;20431;-72
2022/04/08 00:33:27;;;;;;;6.17;4.10;;;6.60;99.90;;;;;;2612417;54;20395;-72
2022/04/08 00:35:53;;;;;;;7.50;4.10;;;6.60;99.90;;;;;;2611306;54;20475;-72
2022/04/08 00:38:18;;;;;;;2.77;2.57;;;6.50;99.90;;;;;;2611740;54;20149;-72
2022/04/08 00:40:44;;;;;;;2.57;2.37;;;6.50;99.90;;;;;;2611296;54;20237;-72
2022/04/08 00:43:11;;;;;;;8.87;4.93;;;6.40;99.90;;;;;;2611804;54;20178;-72
2022/04/08 00:45:37;;;;;;;3.70;2.10;;;6.40;99.90;;;;;;2611238;39;20775;-72
2022/04/08 00:48:07;;;;;;;3.97;3.23;;;6.30;99.90;;;;;;2611657;54;20396;-72
2022/04/08 00:50:43;;;;;;;7.00;2.83;;;6.20;99.90;;;;;;2610908;54;20399;-72
2022/04/08 00:53:09;;;;;;;5.13;3.00;;;6.20;99.90;;;;;;2611178;54;20416;-71
2022/04/08 00:55:37;;;;;;;3.90;3.40;;;6.20;99.90;;;;;;2612089;54;20398;-71
2022/04/08 00:58:03;;;;;;;10.37;4.00;;;6.20;99.90;;;;;;2612027;54;20647;-71
2022/04/08 01:00:35;;;;;;;13.07;6.63;;;6.20;99.90;;;;;;2610808;54;20398;-72
2022/04/08 01:03:02;;;;;;;12.67;3.10;;;6.20;99.90;;;;;;2612084;46;20427;-72
2022/04/08 01:05:28;;;;;;;4.50;2.80;;;6.30;99.90;;;;;;2612525;54;20402;-72
2022/04/08 01:07:55;;;;;;;3.90;3.20;;;6.30;99.90;;;;;;2611813;54;20412;-72
2022/04/08 01:10:21;;;;;;;4.50;3.37;;;6.40;99.90;;;;;;2610400;47;20431;-73
2022/04/08 01:12:49;;;;;;;10.90;4.23;;;6.40;99.90;;;;;;2612716;54;20991;-72
2022/04/08 01:15:16;;;;;;;13.57;4.10;;;6.40;99.90;;;;;;2611069;54;20502;-72
2022/04/08 01:17:42;;;;;;;9.10;2.80;;;6.50;99.90;;;;;;2610382;54;20419;-73
2022/04/08 01:20:08;;;;;;;6.47;3.40;;;6.50;99.90;;;;;;2611579;31;20973;-72
2022/04/08 01:22:35;;;;;;;11.23;3.80;;;6.50;99.90;;;;;;2611482;54;20195;-72
2022/04/08 01:25:03;;;;;;;5.90;3.77;;;6.50;99.90;;;;;;2610435;54;20416;-72
2022/04/08 01:27:29;;;;;;;3.13;2.87;;;6.60;99.90;;;;;;2612689;54;20415;-72
2022/04/08 01:29:56;;;;;;;9.40;6.80;;;6.50;99.90;;;;;;2612292;39;20789;-72
2022/04/08 01:32:22;;;;;;;9.30;5.50;;;6.50;99.90;;;;;;2612860;54;20420;-72
2022/04/08 01:34:49;;;;;;;8.60;4.10;;;6.50;99.90;;;;;;2611881;54;20426;-72
2022/04/08 01:37:16;;;;;;;5.50;3.70;;;6.50;99.90;;;;;;2610813;54;20460;-72
2022/04/08 01:39:42;;;;;;;4.67;3.20;;;6.40;99.90;;;;;;2610763;54;20427;-72
2022/04/08 01:42:08;;;;;;;8.13;3.50;;;6.50;99.90;;;;;;2610628;46;20546;-72
2022/04/08 01:44:35;;;;;;;6.17;3.17;;;6.50;99.90;;;;;;2612926;54;20257;-72
2022/04/08 01:47:01;;;;;;;4.53;3.23;;;6.50;99.90;;;;;;2610627;54;20960;-72
2022/04/08 01:49:27;;;;;;;11.23;3.17;;;6.50;99.90;;;;;;2611938;54;20410;-72
2022/04/08 01:51:53;;;;;;;10.93;3.47;;;6.50;99.90;;;;;;2612455;54;20543;-71
2022/04/08 01:54:19;;;;;;;6.20;2.47;;;6.50;99.90;;;;;;2610775;54;20950;-72
2022/04/08 01:56:44;;;;;;;6.33;3.10;;;6.50;99.90;;;;;;2611065;54;20849;-72
2022/04/08 01:59:10;;;;;;;4.17;2.87;;;6.50;99.90;;;;;;2610220;54;20456;-72
2022/04/08 02:01:36;;;;;;;5.90;3.03;;;6.60;99.90;;;;;;2611017;54;20161;-72
2022/04/08 02:04:04;;;;;;;12.23;3.00;;;6.50;99.90;;;;;;2611227;54;20668;-72
2022/04/08 02:06:30;;;;;;;8.93;2.57;;;6.50;99.90;;;;;;2610376;54;20386;-72
2022/04/08 02:08:57;;;;;;;10.10;3.13;;;6.60;99.90;;;;;;2612299;54;20416;-72
2022/04/08 02:11:23;;;;;;;10.23;3.07;;;6.50;99.90;;;;;;2612468;54;20416;-72
2022/04/08 02:13:50;;;;;;;11.17;2.90;;;6.50;99.90;;;;;;2611500;54;20420;-73
2022/04/08 02:16:16;;;;;;;3.93;2.43;;;6.40;99.90;;;;;;2611070;46;20458;-72
2022/04/08 02:18:42;;;;;;;13.90;3.40;;;6.40;99.90;;;;;;2610854;54;20446;-73
2022/04/08 02:21:09;;;;;;;5.33;1.80;;;6.30;99.90;;;;;;2611581;54;20147;-72
2022/04/08 02:23:36;;;;;;;5.33;3.13;;;6.30;99.90;;;;;;2612234;54;20427;-73
2022/04/08 02:26:05;;;;;;;5.67;2.60;;;6.30;99.90;;;;;;2611224;46;20457;-72
2022/04/08 02:28:32;;;;;;;14.40;3.40;;;6.30;99.90;;;;;;2610774;54;20412;-75
2022/04/08 02:30:58;;;;;;;8.70;2.73;;;6.30;99.90;;;;;;2612095;54;20975;-72
2022/04/08 02:33:24;;;;;;;15.97;4.23;;;6.30;99.90;;;;;;2613569;54;20395;-72
2022/04/08 02:35:50;;;;;;;8.20;3.07;;;6.30;99.90;;;;;;2611308;39;20681;-72
2022/04/08 02:38:16;;;;;;;9.33;4.33;;;6.30;99.90;;;;;;2611195;54;20150;-72
2022/04/08 02:40:42;;;;;;;16.53;4.30;;;6.30;99.90;;;;;;2611412;54;20469;-71
2022/04/08 02:43:08;;;;;;;20.30;4.87;;;6.20;99.90;;;;;;2611734;54;20154;-72
2022/04/08 02:45:33;;;;;;;6.20;3.20;;;6.20;99.90;;;;;;2612512;54;20159;-72
2022/04/08 02:47:59;;;;;;;5.30;2.60;;;6.20;99.90;;;;;;2612861;54;20427;-72
2022/04/08 02:50:25;;;;;;;9.43;3.50;;;6.30;99.90;;;;;;2612738;54;20159;-73
2022/04/08 02:52:51;;;;;;;8.10;3.50;;;6.30;99.90;;;;;;2613333;39;20641;-71
2022/04/08 02:55:16;;;;;;;5.60;2.43;;;6.30;99.90;;;;;;2612146;54;20392;-72
2022/04/08 02:57:46;;;;;;;10.10;2.73;;;6.30;99.90;;;;;;2610148;54;20186;-72
2022/04/08 03:00:16;;;;;;;3.80;2.43;;;6.30;99.90;;;;;;2612138;54;20174;-72
2022/04/08 03:02:43;;;;;;;11.33;3.67;;;6.40;99.90;;;;;;2611518;54;20415;-72
2022/04/08 03:05:09;;;;;;;5.80;3.30;;;6.50;99.90;;;;;;2611472;47;21035;-72
2022/04/08 03:07:35;;;;;;;7.93;4.20;;;6.50;99.90;;;;;;2611266;39;20805;-72
2022/04/08 03:10:03;;;;;;;9.70;3.30;;;6.50;99.90;;;;;;2612219;39;20888;-72
2022/04/08 03:12:29;;;;;;;9.30;4.40;;;6.50;99.90;;;;;;2613105;54;20419;-73
2022/04/08 03:14:55;;;;;;;7.77;3.13;;;6.50;99.90;;;;;;2610987;54;20991;-72
2022/04/08 03:17:21;;;;;;;5.90;3.03;;;6.50;99.90;;;;;;2610822;54;22063;-72
2022/04/08 03:19:47;;;;;;;11.40;2.70;;;6.50;99.90;;;;;;2611590;54;20242;-72
2022/04/08 03:22:12;;;;;;;11.03;2.90;;;6.40;99.90;;;;;;2612353;54;20151;-72
2022/04/08 03:24:38;;;;;;;11.07;3.63;;;6.40;99.90;;;;;;2612368;54;20143;-72
2022/04/08 03:27:04;;;;;;;6.80;3.70;;;6.40;99.90;;;;;;2611568;54;20151;-73
2022/04/08 03:29:30;;;;;;;23.20;3.87;;;6.40;99.90;;;;;;2611881;39;21534;-72
2022/04/08 03:31:55;;;;;;;4.17;2.30;;;6.40;99.90;;;;;;2612306;47;20163;-72
2022/04/08 03:34:21;;;;;;;12.10;3.80;;;6.30;99.90;;;;;;2613670;54;20161;-71
2022/04/08 03:36:47;;;;;;;8.43;3.00;;;6.40;99.90;;;;;;2611867;47;20241;-72
2022/04/08 03:39:14;;;;;;;6.07;3.00;;;6.30;99.90;;;;;;2612095;54;20180;-72
2022/04/08 03:41:40;;;;;;;10.23;4.33;;;6.40;99.90;;;;;;2612843;47;20488;-72
2022/04/08 03:44:06;;;;;;;4.40;2.63;;;6.30;99.90;;;;;;2614328;39;20882;-72
2022/04/08 03:46:32;;;;;;;14.30;4.23;;;6.20;99.90;;;;;;2612549;54;20510;-72
2022/04/08 03:48:58;;;;;;;12.10;4.50;;;6.20;99.90;;;;;;2609810;54;20165;-72
2022/04/08 03:51:24;;;;;;;7.33;3.63;;;6.20;99.90;;;;;;2610997;54;20152;-72
2022/04/08 03:53:50;;;;;;;6.13;3.57;;;6.20;99.90;;;;;;2612176;54;20437;-72
2022/04/08 03:56:16;;;;;;;5.30;2.97;;;6.10;99.90;;;;;;2609619;54;21540;-73
2022/04/08 03:58:41;;;;;;;29.17;5.03;;;6.00;99.90;;;;;;2611300;54;20198;-72
2022/04/08 04:01:07;;;;;;;10.57;4.27;;;6.00;99.90;;;;;;2611171;54;20158;-72
2022/04/08 04:03:33;;;;;;;8.20;4.13;;;5.90;99.90;;;;;;2612786;54;20158;-72
2022/04/08 04:06:00;;;;;;;21.97;5.10;;;5.90;99.90;;;;;;2611989;54;20652;-72
2022/04/08 04:08:26;;;;;;;10.17;4.10;;;5.90;99.90;;;;;;2610825;54;20159;-72
2022/04/08 04:10:52;;;;;;;16.90;3.63;;;5.90;99.90;;;;;;2610977;54;20444;-72
2022/04/08 04:13:17;;;;;;;8.97;3.40;;;5.90;99.90;;;;;;2612473;39;20842;-72
2022/04/08 04:15:43;;;;;;;7.37;3.00;;;5.90;99.90;;;;;;2612205;54;20151;-73
2022/04/08 04:18:09;;;;;;;7.70;2.93;;;5.90;99.90;;;;;;2612456;54;20225;-72
2022/04/08 04:20:35;;;;;;;4.60;2.47;;;5.90;99.90;;;;;;2610552;54;20415;-73
2022/04/08 04:23:02;;;;;;;3.13;2.07;;;5.90;99.90;;;;;;2612718;39;20822;-72
2022/04/08 04:25:28;;;;;;;4.50;2.53;;;5.90;99.90;;;;;;2609738;54;20411;-72
2022/04/08 04:27:55;;;;;;;7.40;3.27;;;5.90;99.90;;;;;;2612391;54;20403;-71
2022/04/08 04:30:23;;;;;;;8.73;3.50;;;5.90;99.90;;;;;;2611944;54;20424;-72
2022/04/08 04:32:49;;;;;;;13.37;4.10;;;5.90;99.90;;;;;;2612627;54;20434;-72
2022/04/08 04:35:15;;;;;;;4.50;2.80;;;5.80;99.90;;;;;;2612436;39;20534;-72
2022/04/08 04:37:40;;;;;;;10.20;4.17;;;5.70;99.90;;;;;;2611491;46;20431;-72
2022/04/08 04:40:08;;;;;;;5.20;3.33;;;5.70;99.90;;;;;;2611107;54;20701;-72
2022/04/08 04:42:37;;;;;;;13.73;3.43;;;5.60;99.90;;;;;;2610601;39;21052;-72
2022/04/08 04:45:03;;;;;;;4.80;2.70;;;5.60;99.90;;;;;;2610228;47;20568;-71
2022/04/08 04:47:29;;;;;;;5.07;3.17;;;5.60;99.90;;;;;;2612381;54;20430;-72
2022/04/08 04:49:54;;;;;;;8.27;3.13;;;5.60;99.90;;;;;;2611791;54;20534;-73
2022/04/08 04:52:20;;;;;;;5.93;2.93;;;5.60;99.90;;;;;;2611693;54;20940;-72
2022/04/08 04:54:46;;;;;;;7.50;4.10;;;5.60;99.90;;;;;;2609952;54;20159;-71
2022/04/08 04:57:12;;;;;;;8.23;2.70;;;5.60;99.90;;;;;;2612803;54;20680;-72
2022/04/08 04:59:37;;;;;;;5.90;3.13;;;5.60;99.90;;;;;;2612277;54;20864;-72
2022/04/08 05:02:04;;;;;;;9.97;3.50;;;5.70;99.90;;;;;;2610136;54;20262;-72
2022/04/08 05:04:30;;;;;;;7.83;3.47;;;5.60;99.90;;;;;;2610603;54;20158;-72
2022/04/08 05:06:56;;;;;;;7.77;3.90;;;5.60;99.90;;;;;;2613606;39;20806;-72
2022/04/08 05:09:22;;;;;;;6.63;4.17;;;5.60;99.90;;;;;;2611958;39;20793;-72
2022/04/08 05:11:48;;;;;;;7.47;3.63;;;5.60;99.90;;;;;;2612484;54;20431;-72
2022/04/08 05:14:14;;;;;;;5.73;3.73;;;5.60;99.90;;;;;;2612542;54;20258;-72
2022/04/08 05:16:39;;;;;;;15.03;2.87;;;5.60;99.90;;;;;;2610561;54;20154;-72
2022/04/08 05:19:05;;;;;;;8.73;3.70;;;5.60;99.90;;;;;;2612003;39;20573;-72
2022/04/08 05:21:31;;;;;;;5.37;2.67;;;5.60;99.90;;;;;;2609836;54;20143;-75
2022/04/08 05:23:57;;;;;;;6.50;2.83;;;5.50;99.90;;;;;;2610510;54;20255;-73
2022/04/08 05:26:22;;;;;;;8.07;3.83;;;5.60;99.90;;;;;;2611833;54;20700;-72
2022/04/08 05:28:48;;;;;;;4.20;3.10;;;5.60;99.90;;;;;;2609804;39;20894;-74
2022/04/08 05:31:14;;;;;;;8.43;3.40;;;5.50;99.90;;;;;;2608774;47;20162;-73
2022/04/08 05:33:40;;;;;;;6.57;3.43;;;5.50;99.90;;;;;;2610043;54;20159;-73
2022/04/08 05:36:06;;;;;;;11.23;4.00;;;5.50;99.90;;;;;;2610939;39;20907;-73
2022/04/08 05:38:32;;;;;;;9.63;4.10;;;5.50;99.90;;;;;;2610884;54;20407;-72
2022/04/08 05:40:57;;;;;;;8.60;5.37;;;5.50;99.90;;;;;;2608965;54;21156;-71
2022/04/08 05:43:23;;;;;;;5.50;3.87;;;5.60;99.90;;;;;;2611226;54;20226;-72
2022/04/08 05:45:49;;;;;;;6.53;4.27;;;5.50;99.90;;;;;;2610615;54;20178;-71
2022/04/08 05:48:15;;;;;;;6.40;4.80;;;5.70;99.90;;;;;;2612411;39;20269;-72
2022/04/08 05:50:41;;;;;;;12.10;5.20;;;5.90;99.90;;;;;;2611461;54;20151;-72
2022/04/08 05:53:07;;;;;;;9.10;4.87;;;6.10;99.90;;;;;;2608364;54;20412;-72
2022/04/08 05:55:33;;;;;;;13.93;4.93;;;6.20;99.90;;;;;;2610369;54;20262;-73
2022/04/08 05:57:58;;;;;;;7.30;5.23;;;6.30;99.90;;;;;;2610153;54;20193;-72
2022/04/08 06:00:24;;;;;;;9.17;5.73;;;6.50;99.90;;;;;;2611300;54;20153;-71
2022/04/08 06:02:53;;;;;;;6.70;4.73;;;6.80;99.90;;;;;;2610052;54;20672;-72
2022/04/08 06:05:19;;;;;;;14.77;4.77;;;7.10;99.90;;;;;;2612187;39;20719;-73
2022/04/08 06:07:56;;;;;;;7.77;4.60;;;7.20;99.90;;;;;;2604111;54;20530;-73
2022/04/08 06:10:24;;;;;;;10.47;5.80;;;7.20;99.90;;;;;;2606574;54;20414;-72
2022/04/08 06:12:54;;;;;;;11.20;5.03;;;7.50;99.90;;;;;;2609583;54;20417;-72
2022/04/08 06:15:21;;;;;;;7.93;4.13;;;7.50;99.90;;;;;;2612162;54;20444;-72
2022/04/08 06:17:47;;;;;;;7.93;4.20;;;7.30;99.90;;;;;;2610615;39;20832;-71
2022/04/08 06:20:17;;;;;;;6.97;5.30;;;7.50;99.90;;;;;;2610598;54;21106;-72
2022/04/08 06:22:44;;;;;;;11.97;4.47;;;7.60;99.90;;;;;;2611620;54;20940;-72
2022/04/08 06:25:12;;;;;;;5.87;4.40;;;7.80;99.90;;;;;;2610112;39;20472;-71
2022/04/08 06:27:38;;;;;;;7.93;4.27;;;8.00;99.90;;;;;;2610946;54;20566;-72
2022/04/08 06:30:09;;;;;;;9.00;4.93;;;8.10;99.90;;;;;;2611033;54;20408;-71
2022/04/08 06:32:36;;;;;;;12.03;4.77;;;8.10;99.90;;;;;;2609591;54;20455;-72
2022/04/08 06:35:01;;;;;;;12.60;4.40;;;8.10;99.90;;;;;;2610143;54;20422;-72
2022/04/08 06:37:28;;;;;;;9.53;5.40;;;8.00;99.90;;;;;;2611088;54;20417;-73
2022/04/08 06:39:55;;;;;;;16.20;5.70;;;8.00;99.90;;;;;;2611939;54;20427;-73
2022/04/08 06:42:24;;;;;;;11.90;5.07;;;8.20;99.90;;;;;;2609759;54;20417;-72
2022/04/08 06:44:50;;;;;;;10.97;5.03;;;8.20;99.90;;;;;;2611380;54;20416;-71
2022/04/08 06:47:15;;;;;;;10.70;5.70;;;8.00;99.90;;;;;;2610002;54;21060;-72
2022/04/08 06:49:44;;;;;;;7.20;4.67;;;7.90;99.90;;;;;;2610629;39;20777;-72
2022/04/08 06:52:11;;;;;;;6.90;5.97;;;7.80;99.90;;;;;;2611359;53;20174;-72
2022/04/08 06:54:37;;;;;;;12.60;8.47;;;7.80;99.90;;;;;;2608576;54;20417;-73
2022/04/08 06:57:03;;;;;;;8.33;5.60;;;8.10;99.90;;;;;;2604359;54;20452;-72
2022/04/08 06:59:28;;;;;;;10.23;6.03;;;8.60;99.90;;;;;;2606528;54;20175;-72
2022/04/08 07:01:54;;;;;;;16.03;6.70;;;8.80;99.90;;;;;;2608211;39;20926;-72
2022/04/08 07:04:20;;;;;;;8.70;5.83;;;8.90;99.90;;;;;;2598982;54;20157;-71
2022/04/08 07:06:46;;;;;;;9.93;7.60;;;9.10;99.90;;;;;;2597237;39;21158;-72
2022/04/08 07:09:11;;;;;;;9.30;7.13;;;9.30;99.90;;;;;;2599644;47;20181;-72
2022/04/08 07:11:37;;;;;;;11.00;8.00;;;9.30;99.90;;;;;;2599693;54;20155;-72
2022/04/08 07:14:04;;;;;;;13.70;7.70;;;9.50;99.90;;;;;;2602146;54;20166;-72
2022/04/08 07:16:30;;;;;;;20.10;9.53;;;9.60;99.90;;;;;;2608312;54;20167;-72
2022/04/08 07:18:55;;;;;;;12.63;9.00;;;9.70;99.90;;;;;;2609154;39;20924;-71
2022/04/08 07:21:24;;;;;;;12.90;8.57;;;9.60;99.90;;;;;;2606799;54;20528;-71
2022/04/08 07:23:50;;;;;;;15.70;9.30;;;9.60;99.90;;;;;;2612383;39;20562;-72
2022/04/08 07:26:18;;;;;;;12.17;7.63;;;9.80;99.90;;;;;;2611722;54;20408;-72
2022/04/08 07:28:44;;;;;;;8.70;7.67;;;10.10;99.90;;;;;;2611458;54;20162;-71
2022/04/08 07:31:10;;;;;;;8.83;7.60;;;10.30;99.90;;;;;;2609122;54;20419;-73
2022/04/08 07:33:36;;;;;;;13.20;8.53;;;9.60;99.90;;;;;;2612286;54;20424;-72
2022/04/08 07:36:03;;;;;;;13.13;9.10;;;8.90;99.90;;;;;;2611524;54;20691;-72
2022/04/08 07:38:29;;;;;;;11.10;9.20;;;8.70;99.90;;;;;;2606361;54;20843;-72
2022/04/08 07:40:57;;;;;;;11.37;10.17;;;8.40;99.90;;;;;;2604744;46;20421;-71
2022/04/08 07:43:23;;;;;;;10.13;8.93;;;8.40;99.90;;;;;;2609308;54;20159;-72
2022/04/08 07:45:49;;;;;;;10.13;9.10;;;8.50;99.90;;;;;;2608834;54;20643;-72
2022/04/08 07:48:15;;;;;;;13.10;7.43;;;8.80;99.90;;;;;;2611121;54;20423;-72
2022/04/08 07:50:41;;;;;;;10.07;8.60;;;8.80;97.00;;;;;;2611247;54;20470;-72
2022/04/08 07:53:07;;;;;;;10.23;8.90;;;8.70;97.90;;;;;;2608967;54;20468;-72
2022/04/08 07:55:33;;;;;;;8.27;7.50;;;8.60;99.90;;;;;;2607126;54;20416;-72
2022/04/08 07:57:59;;;;;;;10.90;9.07;;;8.80;99.90;;;;;;2604948;54;21619;-72
2022/04/08 08:00:28;;;;;;;9.63;8.50;;;9.00;98.90;;;;;;2598503;54;20413;-73
2022/04/08 08:02:54;;;;;;;13.17;9.60;;;9.20;98.30;;;;;;2610971;54;20905;-72
2022/04/08 08:05:21;;;;;;;9.30;8.33;;;9.50;96.50;;;;;;2611001;54;20410;-72
2022/04/08 08:07:58;;;;;;;11.10;8.40;;;9.40;93.00;;;;;;2611439;39;20871;-72
2022/04/08 08:10:25;;;;;;;11.30;9.30;;;9.10;92.70;;;;;;2613209;54;20417;-72
2022/04/08 08:12:52;;;;;;;10.10;8.63;;;9.00;94.10;;;;;;2609944;54;20413;-72
2022/04/08 08:15:19;;;;;;;11.97;7.93;;;8.90;94.40;;;;;;2610721;54;20507;-72
2022/04/08 08:17:46;;;;;;;8.17;7.43;;;8.80;90.40;;;;;;2611312;54;21499;-72
2022/04/08 08:20:14;;;;;;;9.20;8.07;;;8.80;92.90;;;;;;2612188;39;20856;-72
2022/04/08 08:22:41;;;;;;;9.70;7.77;;;8.90;89.40;;;;;;2611220;39;20813;-72
2022/04/08 08:25:08;;;;;;;11.90;7.77;;;9.10;81.60;;;;;;2609317;54;20429;-72
2022/04/08 08:27:42;;;;;;;9.10;7.57;;;9.10;73.50;;;;;;2610359;54;20509;-72
2022/04/08 08:30:10;;;;;;;7.40;6.70;;;9.00;71.00;;;;;;2610506;31;20895;-72
2022/04/08 08:32:37;;;;;;;8.20;7.43;;;9.00;79.30;;;;;;2610113;54;20540;-72
2022/04/08 08:35:08;;;;;;;12.23;7.70;;;9.00;78.60;;;;;;2611952;54;20418;-73
2022/04/08 08:37:34;;;;;;;10.00;6.20;;;9.10;77.70;;;;;;2609945;54;20438;-72
2022/04/08 08:40:00;;;;;;;8.70;6.33;;;9.00;66.20;;;;;;2611512;54;20446;-72
2022/04/08 08:42:28;;;;;;;6.50;5.10;;;9.10;62.80;;;;;;2610761;47;20418;-72
2022/04/08 08:44:54;;;;;;;14.33;5.70;;;9.10;58.90;;;;;;2609951;54;20542;-72
2022/04/08 08:47:21;;;;;;;6.40;5.90;;;8.90;64.40;;;;;;2610387;54;20428;-72
2022/04/08 08:49:50;;;;;;;6.50;5.77;;;9.10;66.70;;;;;;2610201;54;20148;-72
2022/04/08 08:52:19;;;;;;;8.60;7.00;;;9.00;63.30;;;;;;2610599;39;20745;-72
2022/04/08 08:54:49;;;;;;;12.23;7.00;;;9.00;64.20;;;;;;2610157;39;20838;-73
2022/04/08 08:57:16;;;;;;;6.17;5.57;;;9.10;66.80;;;;;;2610132;54;20553;-73
2022/04/08 08:59:44;;;;;;;8.17;7.17;;;9.00;59.10;;;;;;2610306;54;20467;-73
2022/04/08 09:02:14;;;;;;;7.60;6.10;;;8.90;61.60;;;;;;2611040;54;20442;-72
2022/04/08 09:04:41;;;;;;;7.07;6.37;;;9.00;64.20;;;;;;2610268;54;20514;-72
2022/04/08 09:07:09;;;;;;;8.00;5.50;;;9.10;56.90;;;;;;2611272;54;20469;-71
2022/04/08 09:09:35;;;;;;;9.50;6.23;;;9.10;56.80;;;;;;2611990;54;20438;-73
2022/04/08 09:12:14;;;;;;;8.67;7.30;;;9.10;56.90;;;;;;2610069;54;20893;-72
2022/04/08 09:14:55;;;;;;;6.83;6.17;;;9.30;61.60;;;;;;2610955;54;20180;-73
2022/04/08 09:17:23;;;;;;;6.30;5.70;;;9.20;64.10;;;;;;2610541;54;20421;-72
2022/04/08 09:19:59;;;;;;;7.80;6.23;;;9.20;71.20;;;;;;2610194;54;20432;-72
2022/04/08 09:22:32;;;;;;;7.50;6.80;;;9.00;71.30;;;;;;2611950;54;20427;-72
2022/04/08 09:25:11;;;;;;;6.40;5.83;;;9.20;72.80;;;;;;2612441;54;20468;-71
2022/04/08 09:27:39;;;;;;;7.23;6.63;;;9.20;66.30;;;;;;2608391;39;20819;-72
2022/04/08 09:30:07;;;;;;;10.90;6.63;;;9.40;59.60;;;;;;2608896;54;20396;-72
2022/04/08 09:32:33;;;;;;;13.50;6.40;;;9.40;61.90;;;;;;2609190;47;20437;-72
2022/04/08 09:34:59;;;;;;;10.27;6.47;;;9.50;57.20;;;;;;2611117;47;20460;-72
2022/04/08 09:37:25;;;;;;;8.60;7.23;;;9.50;57.20;;;;;;2610196;54;20424;-72
2022/04/08 09:40:05;;;;;;;14.23;5.90;;;9.60;57.30;;;;;;2610098;54;20155;-72
2022/04/08 09:42:44;;;;;;;6.40;4.80;;;9.70;49.20;;;;;;2610385;54;20434;-72
2022/04/08 09:45:12;;;;;;;5.53;4.93;;;9.80;44.90;;;;;;2610227;54;20427;-72
2022/04/08 09:47:38;;;;;;;5.77;5.27;;;9.80;42.50;;;;;;2611018;39;20804;-73
2022/04/08 09:50:10;;;;;;;7.43;5.53;;;9.80;47.80;;;;;;2609220;54;20960;-72
2022/04/08 09:52:38;;;;;;;5.10;4.70;;;9.80;49.40;;;;;;2610972;54;20443;-72
2022/04/08 09:55:07;;;;;;;6.33;5.70;;;9.90;49.60;;;;;;2610639;54;20403;-72
2022/04/08 09:57:37;;;;;;;5.90;4.80;;;9.80;53.80;;;;;;2608994;54;20453;-73
2022/04/08 10:00:04;;;;;;;8.03;6.20;;;9.70;54.00;;;;;;2611473;54;20433;-72
2022/04/08 10:02:34;;;;;;;8.63;6.17;;;9.50;57.20;;;;;;2610268;54;20395;-74
2022/04/08 10:05:01;;;;;;;6.93;5.80;;;9.40;60.30;;;;;;2610656;54;21031;-73
2022/04/08 10:07:28;;;;;;;7.53;4.83;;;9.40;55.40;;;;;;2611235;39;20868;-72
2022/04/08 10:10:13;;;;;;;6.17;5.57;;;9.30;58.70;;;;;;2610831;39;21083;-73
2022/04/08 10:12:57;;;;;;;6.00;4.83;;;9.40;51.90;;;;;;2611034;54;20392;-72
2022/04/08 10:15:38;;;;;;;6.03;3.90;;;9.50;40.00;;;;;;2610385;54;20510;-72
2022/04/08 10:18:05;;;;;;;6.33;4.70;;;9.60;48.00;;;;;;2611471;54;21052;-72
2022/04/08 10:20:35;;;;;;;10.53;5.13;;;9.70;49.30;;;;;;2625970;36;20454;-73
2022/04/08 10:23:12;;;;;;;5.77;4.53;;;9.70;48.10;;;;;;2609127;54;20410;-73
2022/04/08 10:25:58;;;;;;;7.70;6.90;;;10.00;50.00;;;;;;2609831;54;20421;-72
2022/04/08 10:28:34;;;;;;;7.67;4.70;;;10.20;44.60;;;;;;2608756;54;20533;-72
2022/04/08 10:31:00;;;;;;;4.07;3.77;;;10.30;47.00;;;;;;2611415;54;20444;-72
2022/04/08 10:33:28;;;;;;;4.93;4.37;;;10.20;43.40;;;;;;2610309;47;20630;-71
2022/04/08 10:36:01;;;;;;;5.27;4.20;;;10.00;43.90;;;;;;2611801;54;20418;-72
2022/04/08 10:38:38;;;;;;;7.07;4.60;;;10.00;37.70;;;;;;2609072;54;20893;-72
2022/04/08 10:41:09;;;;;;;6.70;4.90;;;10.00;39.70;;;;;;2609047;54;21000;-71
2022/04/08 10:43:43;;;;;;;5.30;4.80;;;9.90;37.20;;;;;;2609228;54;20426;-72
2022/04/08 10:46:09;;;;;;;4.63;4.23;;;9.70;37.10;;;;;;2610063;54;20428;-71
2022/04/08 10:48:35;;;;;;;5.60;4.70;;;9.70;39.10;;;;;;2610964;54;20655;-72
2022/04/08 10:51:14;;;;;;;4.77;4.47;;;9.60;39.90;;;;;;2610417;54;20190;-72
2022/04/08 10:53:42;;;;;;;4.50;3.73;;;9.60;39.40;;;;;;2610569;47;20181;-73
2022/04/08 10:56:10;;;;;;;4.40;4.00;;;9.70;31.70;;;;;;2610279;47;20441;-73
2022/04/08 10:58:43;;;;;;;4.30;3.90;;;9.70;31.30;;;;;;2611368;39;20791;-72
2022/04/08 11:01:24;;;;;;;6.87;3.47;;;9.70;32.30;;;;;;2611651;54;20402;-73
2022/04/08 11:04:03;;;;;;;3.10;2.90;;;9.80;34.90;;;;;;2611778;54;21087;-72
2022/04/08 11:06:31;;;;;;;2.80;2.60;;;9.60;29.00;;;;;;2611749;54;20511;-73
2022/04/08 11:09:08;;;;;;;2.90;2.70;;;9.40;25.60;;;;;;2610363;54;20544;-71
2022/04/08 11:11:36;;;;;;;9.30;2.80;;;9.40;17.90;;;;;;2611935;39;20923;-72
2022/04/08 11:14:04;;;;;;;3.40;2.30;;;9.40;17.30;;;;;;2611764;54;20431;-73
2022/04/08 11:16:35;;;;;;;3.47;3.17;;;9.40;19.00;;;;;;2610323;47;20418;-73
2022/04/08 11:19:08;;;;;;;3.20;2.90;;;9.40;20.30;;;;;;2610304;54;21479;-73
2022/04/08 11:21:35;;;;;;;2.63;2.53;;;9.50;17.90;;;;;;2611632;54;20423;-73
2022/04/08 11:24:02;;;;;;;2.70;2.20;;;9.60;18.50;;;;;;2610347;54;20954;-72
2022/04/08 11:26:30;;;;;;;3.43;3.10;;;9.60;20.80;;;;;;2609883;54;20438;-73
2022/04/08 11:28:56;;;;;;;3.40;3.07;;;9.60;20.50;;;;;;2610285;54;20455;-72
2022/04/08 11:31:23;;;;;;;4.90;3.43;;;9.60;20.20;;;;;;2611603;47;20971;-73
2022/04/08 11:33:49;;;;;;;4.23;3.10;;;9.70;20.40;;;;;;2611459;54;20432;-72
2022/04/08 11:36:21;;;;;;;3.20;3.00;;;9.70;22.70;;;;;;2611123;54;20978;-72
2022/04/08 11:38:47;;;;;;;3.87;3.57;;;9.90;22.20;;;;;;2610982;47;20196;-72
2022/04/08 11:41:23;;;;;;;3.97;3.67;;;10.10;20.80;;;;;;2610549;54;20498;-72
2022/04/08 11:43:49;;;;;;;4.97;4.50;;;10.30;21.40;;;;;;2610157;39;20643;-72
2022/04/08 11:46:16;;;;;;;4.67;4.27;;;10.20;20.00;;;;;;2604619;54;20454;-72
2022/04/08 11:48:42;;;;;;;5.57;4.90;;;10.20;16.10;;;;;;2609217;54;20938;-72
2022/04/08 11:51:08;;;;;;;6.00;3.60;;;10.20;18.30;;;;;;2611146;54;20405;-73
2022/04/08 11:53:45;;;;;;;4.80;4.50;;;10.10;15.40;;;;;;2611277;54;20471;-73
2022/04/08 11:56:11;;;;;;;4.80;4.50;;;10.10;17.70;;;;;;2608580;39;21980;-72
2022/04/08 11:58:38;;;;;;;4.60;4.30;;;10.10;17.40;;;;;;2610542;54;21011;-72
2022/04/08 12:01:05;;;;;;;4.67;4.17;;;10.40;17.00;;;;;;2607171;47;20416;-72
2022/04/08 12:03:33;;;;;;;5.27;4.77;;;10.50;15.70;;;;;;2605588;54;20488;-73
2022/04/08 12:06:02;;;;;;;6.40;5.70;;;10.50;14.10;;;;;;2608768;54;20465;-72
2022/04/08 12:08:29;;;;;;;3.93;3.70;;;10.40;12.80;;;;;;2611853;54;20422;-72
2022/04/08 12:10:58;;;;;;;5.07;4.57;;;10.30;11.80;;;;;;2608471;54;20423;-72
2022/04/08 12:20:39;;;;;;;3.90;3.60;;;10.20;14.90;;;;;;2609527;39;20649;-72
2022/04/08 12:23:05;;;;;;;4.83;4.43;;;10.30;14.10;;;;;;2610741;54;20968;-72
2022/04/08 12:25:32;;;;;;;5.07;4.67;;;10.40;13.40;;;;;;2610596;39;20750;-72
2022/04/08 12:27:59;;;;;;;5.00;4.57;;;10.30;12.20;;;;;;2609833;54;20427;-72
2022/04/08 12:30:34;;;;;;;4.57;4.27;;;10.40;14.40;;;;;;2610762;54;20441;-73
2022/04/08 12:32:59;;;;;;;4.47;4.07;;;10.40;11.40;;;;;;2610677;39;21078;-73
2022/04/08 12:35:26;;;;;;;4.07;3.87;;;10.20;9.00;;;;;;2610710;54;20528;-73
2022/04/08 12:37:52;;;;;;;4.90;4.43;;;10.10;13.20;;;;;;2611282;54;20710;-73
2022/04/08 12:40:18;;;;;;;4.80;4.40;;;10.00;13.40;;;;;;2611409;54;20512;-73
2022/04/08 12:42:44;;;;;;;5.07;4.60;;;10.00;14.90;;;;;;2610063;54;20746;-73
2022/04/08 12:45:10;;;;;;;5.50;4.97;;;10.10;15.70;;;;;;2610124;54;20164;-73
2022/04/08 12:47:36;;;;;;;6.93;6.10;;;10.00;14.40;;;;;;2606904;54;20151;-73
2022/04/08 12:50:08;;;;;;;6.03;5.53;;;10.00;17.00;;;;;;2607035;39;20637;-72
2022/04/08 12:52:34;;;;;;;4.60;4.13;;;10.10;14.50;;;;;;2609134;54;20447;-72
2022/04/08 12:55:00;;;;;;;8.40;5.50;;;10.00;12.40;;;;;;2610160;54;20424;-72
2022/04/08 12:57:25;;;;;;;5.77;4.60;;;10.00;13.50;;;;;;2605404;54;20524;-72
2022/04/08 12:59:51;;;;;;;5.90;5.40;;;10.30;13.70;;;;;;2605170;54;20193;-73
2022/04/08 13:02:17;;;;;;;9.63;5.30;;;10.40;13.70;;;;;;2605433;47;20253;-72